Frisco, Illinois
Current Conditions -  °F | °C
As of 6:15 PM on Friday 21 Nov 2014 (Local Time) from KMVN Reporting Station
Overcast Overcast  
Wind Chill: 35°   Ceiling: 3200
Heat Index: 39°   Visibility: 10mi
Dew Point: 19°   Wind: 6mph
Humidity: 45%   Direction: 100°E
Pressure: 30.35"   Gusts: NA
Location:  38.075°N, 88.8028°W
Report Text: KMVN 220015Z AUTO 10005KT 10SM OVC032 04/M07 A3035 RMK AO1
Loading
Personal Weather Stations






























Interactive Weather Map New forecast layout! Learn more

10-Day Weather Forecast

Advertisements
Track Severe Weather on mobile